Terminal Aerodrome Forecast
Issued by NWS

Home | Current Version | Previous Version | Text Only | Print | Product List | Glossary On
Versions: 1 2 3 4 5 6 7 8 9 10 11 12 13 14 15 16 17 18 19 20 21 22
000
FTUS43 KGRB 222332
TAFATW
TAF
KATW 222332Z 2300/2324 VRB03KT 3SM BR OVC004
      TEMPO 2300/2303 1SM BR OVC003
     FM230300 30002KT 1/2SM -DZ FG OVC002
     FM231500 32004KT 1/2SM FG OVC003
     FM231700 33005KT 3SM BR OVC006
     FM232000 33005KT 5SM BR OVC012=

USA.gov is the U.S. government's official web portal to all federal, state and local government web resources and services.